Time;durP1;ratioP1;P1;durP2;ratioP2;P2;SDS_P1;SDS_P2;PMS_P1;PMS_P2;Temp;Humidity;BMP_temperature;BMP_pressure;BME280_temperature;BME280_humidity;BME280_pressure;Samples;Min_cycle;Max_cycle;Signal;HPM_P1;HPM_P2
2022/12/01 00:00:54;;;;;;;24.63;3.72;;;20.40;46.00;;;;;;5083737;28;20068;-69
2022/12/01 00:03:21;;;;;;;29.70;4.15;;;20.30;46.10;;;;;;5077953;28;20548;-68
2022/12/01 00:05:47;;;;;;;29.17;4.40;;;20.20;46.10;;;;;;5078486;28;20096;-68
2022/12/01 00:08:13;;;;;;;32.65;4.57;;;20.10;46.30;;;;;;5080288;28;20090;-67
2022/12/01 00:10:40;;;;;;;23.90;3.72;;;20.00;46.60;;;;;;5078767;28;20072;-68
2022/12/01 00:13:06;;;;;;;29.00;4.50;;;19.90;46.50;;;;;;5078300;28;20084;-72
2022/12/01 00:15:36;;;;;;;17.00;4.63;;;19.90;46.50;;;;;;5078177;28;20065;-68
2022/12/01 00:18:04;;;;;;;26.05;4.28;;;19.70;46.70;;;;;;5075538;28;20439;-67
2022/12/01 00:20:33;;;;;;;23.58;4.20;;;19.70;47.20;;;;;;5077607;28;20520;-67
2022/12/01 00:23:01;;;;;;;22.40;3.90;;;19.60;46.90;;;;;;5075884;28;20528;-66
2022/12/01 00:25:28;;;;;;;21.85;3.85;;;19.50;47.20;;;;;;5075917;28;20068;-69
2022/12/01 00:27:56;;;;;;;27.67;4.85;;;19.40;47.50;;;;;;5077155;28;20091;-70
2022/12/01 00:30:22;;;;;;;29.60;4.47;;;19.40;47.90;;;;;;5077140;28;20076;-68
2022/12/01 00:32:49;;;;;;;26.90;4.55;;;19.30;47.90;;;;;;5076212;28;20065;-67
2022/12/01 00:35:16;;;;;;;28.13;4.57;;;19.20;48.30;;;;;;5076134;28;20169;-69
2022/12/01 00:37:43;;;;;;;36.92;5.10;;;19.10;48.30;;;;;;5075526;28;20099;-66
2022/12/01 00:40:10;;;;;;;43.22;5.07;;;19.00;48.40;;;;;;5077930;28;20094;-66
2022/12/01 00:42:36;;;;;;;29.25;5.00;;;19.00;48.50;;;;;;5070400;28;20076;-68
2022/12/01 00:45:04;;;;;;;27.80;5.10;;;18.90;48.80;;;;;;5069254;28;20561;-68
2022/12/01 00:47:30;;;;;;;34.38;5.20;;;18.70;49.20;;;;;;5077940;28;20128;-67
2022/12/01 00:49:56;;;;;;;31.48;5.18;;;18.60;49.70;;;;;;5070799;28;20168;-69
2022/12/01 00:52:23;;;;;;;29.23;5.60;;;18.50;50.00;;;;;;5075678;28;20080;-67
2022/12/01 00:54:49;;;;;;;45.17;6.05;;;18.40;50.10;;;;;;5079766;28;20106;-69
2022/12/01 00:57:15;;;;;;;31.33;5.32;;;18.30;50.40;;;;;;5067404;28;20077;-69
2022/12/01 00:59:42;;;;;;;49.97;5.75;;;18.20;50.80;;;;;;5067898;28;20069;-70
2022/12/01 01:02:09;;;;;;;38.75;6.40;;;18.10;51.20;;;;;;5068658;28;20119;-69
2022/12/01 01:04:36;;;;;;;28.77;5.88;;;18.00;51.40;;;;;;5076114;28;20088;-69
2022/12/01 01:07:02;;;;;;;56.47;8.07;;;17.90;51.40;;;;;;5075199;28;20071;-69
2022/12/01 01:09:31;;;;;;;42.33;6.85;;;17.80;51.50;;;;;;5080475;28;20156;-69
2022/12/01 01:11:58;;;;;;;40.13;6.78;;;17.80;51.80;;;;;;5078648;28;20069;-69
2022/12/01 01:14:24;;;;;;;38.78;6.40;;;17.60;52.00;;;;;;5082141;28;20088;-66
2022/12/01 01:16:51;;;;;;;38.63;6.45;;;17.60;52.30;;;;;;5080788;28;20072;-67
2022/12/01 01:19:17;;;;;;;33.78;6.20;;;17.60;52.30;;;;;;5078826;28;20065;-68
2022/12/01 01:21:44;;;;;;;39.00;8.00;;;17.50;52.70;;;;;;5076888;28;20580;-68
2022/12/01 01:24:10;;;;;;;;;;;17.40;52.90;;;;;;5081072;28;20525;-68
2022/12/01 01:26:36;;;;;;;47.45;7.85;;;17.40;53.10;;;;;;5075864;28;21623;-68
2022/12/01 01:29:06;;;;;;;51.22;8.43;;;17.30;53.80;;;;;;5078896;28;20091;-68
2022/12/01 01:31:33;;;;;;;49.42;9.05;;;17.30;54.10;;;;;;5078343;28;20164;-68
2022/12/01 01:33:59;;;;;;;51.25;10.07;;;17.20;54.50;;;;;;5080891;28;20541;-66
2022/12/01 01:36:26;;;;;;;45.28;10.45;;;17.10;54.90;;;;;;5085718;28;20065;-68
2022/12/01 01:38:54;;;;;;;45.78;10.00;;;17.10;55.20;;;;;;5084946;28;20230;-68
2022/12/01 01:41:21;;;;;;;47.03;10.38;;;17.00;55.40;;;;;;5080731;28;20073;-68
2022/12/01 01:43:51;;;;;;;58.03;12.38;;;16.90;55.50;;;;;;5076775;28;20068;-67
2022/12/01 01:46:20;;;;;;;45.40;12.20;;;16.90;55.50;;;;;;5086489;28;20069;-64
2022/12/01 01:48:53;;;;;;;79.65;13.00;;;16.80;56.00;;;;;;5078614;28;20108;-68
2022/12/01 01:51:31;;;;;;;69.15;12.30;;;16.70;56.30;;;;;;5075053;28;20065;-66
2022/12/01 01:54:03;;;;;;;46.92;11.88;;;16.70;57.00;;;;;;5072254;28;20085;-66
2022/12/01 01:56:30;;;;;;;55.45;10.95;;;16.70;57.00;;;;;;5083449;28;20064;-66
2022/12/01 01:58:57;;;;;;;57.40;10.93;;;16.60;57.30;;;;;;5083758;28;20087;-65
2022/12/01 02:01:24;;;;;;;54.88;11.45;;;16.60;57.70;;;;;;5080049;28;20072;-68
2022/12/01 02:03:53;;;;;;;64.72;11.15;;;16.60;57.50;;;;;;5082088;28;20076;-68
2022/12/01 02:06:23;;;;;;;50.65;11.57;;;16.50;57.40;;;;;;5079651;28;20119;-70
2022/12/01 02:08:49;;;;;;;53.95;10.95;;;16.50;57.70;;;;;;5076348;28;20077;-71
2022/12/01 02:11:22;;;;;;;60.65;11.93;;;16.50;57.80;;;;;;5079926;28;20080;-72
2022/12/01 02:13:55;;;;;;;57.92;11.50;;;16.50;57.90;;;;;;5076084;28;20069;-69
2022/12/01 02:16:47;;;;;;;49.53;11.35;;;16.40;58.30;;;;;;5076776;28;20092;-70
2022/12/01 02:19:38;;;;;;;51.65;12.68;;;16.40;58.40;;;;;;5076527;28;20069;-73
2022/12/01 02:22:23;;;;;;;61.35;12.48;;;16.40;58.20;;;;;;5072805;28;20081;-72
2022/12/01 02:25:19;;;;;;;79.45;21.95;;;16.30;58.10;;;;;;5076112;28;20077;-73
2022/12/01 02:28:22;;;;;;;62.58;23.10;;;16.30;58.30;;;;;;5076994;28;20181;-74
2022/12/01 02:31:10;;;;;;;63.47;16.60;;;16.20;58.70;;;;;;5077081;28;20101;-71
2022/12/01 02:34:06;;;;;;;69.75;16.25;;;16.20;59.30;;;;;;5074384;28;20083;-72
2022/12/01 02:36:50;;;;;;;69.13;15.13;;;16.10;59.60;;;;;;5069573;28;20084;-71
2022/12/01 02:39:37;;;;;;;78.05;15.82;;;16.10;59.30;;;;;;5081487;28;20115;-71
2022/12/01 02:43:04;;;;;;;89.93;15.52;;;16.00;59.50;;;;;;5080906;28;20162;-74
2022/12/01 02:45:10;;;;;;;86.03;17.63;;;16.00;59.80;;;;;;5068283;28;20549;-71
2022/12/01 02:47:39;;;;;;;77.35;17.48;;;16.00;59.80;;;;;;5080573;28;20117;-70
2022/12/01 02:50:09;;;;;;;75.45;19.00;;;15.90;59.70;;;;;;5073783;28;20083;-70
2022/12/01 02:52:36;;;;;;;71.45;18.70;;;15.90;60.00;;;;;;5078253;28;20529;-74
2022/12/01 02:55:03;;;;;;;88.50;20.92;;;15.80;60.20;;;;;;5083890;28;20105;-72
2022/12/01 02:57:30;;;;;;;92.93;21.63;;;15.80;60.70;;;;;;5083557;28;20073;-71
2022/12/01 02:59:57;;;;;;;79.97;21.25;;;15.70;60.60;;;;;;5081571;28;20448;-73
2022/12/01 03:02:29;;;;;;;95.30;22.52;;;15.70;60.60;;;;;;5082491;28;20568;-71
2022/12/01 03:05:20;;;;;;;83.88;21.90;;;15.70;60.70;;;;;;5081214;28;20097;-73
2022/12/01 03:08:18;;;;;;;76.30;19.77;;;15.70;60.90;;;;;;5074681;28;20085;-74
2022/12/01 03:10:52;;;;;;;90.68;21.67;;;15.60;61.70;;;;;;5078846;28;20441;-71
2022/12/01 03:14:08;;;;;;;87.63;21.85;;;15.60;62.40;;;;;;5086145;28;20088;-71
2022/12/01 03:16:47;;;;;;;95.55;21.98;;;15.60;62.60;;;;;;5016945;28;20560;-72
2022/12/01 03:19:42;;;;;;;95.85;22.80;;;15.60;63.10;;;;;;5017723;28;20117;-72
2022/12/01 03:22:13;;;;;;;101.10;21.30;;;15.50;63.50;;;;;;5019214;28;20078;-74
2022/12/01 03:24:43;;;;;;;90.50;20.65;;;15.50;63.90;;;;;;5014791;28;20161;-70
2022/12/01 03:27:12;;;;;;;82.43;21.17;;;15.40;64.00;;;;;;5015739;28;20613;-71
2022/12/01 03:29:45;;;;;;;78.40;21.08;;;15.40;64.10;;;;;;5018413;28;20094;-70
2022/12/01 03:32:18;;;;;;;103.65;20.90;;;15.40;64.30;;;;;;5019340;28;20082;-73
2022/12/01 03:35:04;;;;;;;85.20;19.90;;;15.40;64.20;;;;;;5016240;28;20070;-71
2022/12/01 03:37:39;;;;;;;78.43;20.50;;;15.40;64.30;;;;;;5017586;28;20490;-73
2022/12/01 03:40:09;;;;;;;92.95;20.27;;;15.30;64.60;;;;;;5013188;28;20233;-71
2022/12/01 03:42:40;;;;;;;120.90;22.30;;;15.30;64.70;;;;;;5009494;28;20081;-73
2022/12/01 03:45:16;;;;;;;75.90;19.33;;;15.20;65.20;;;;;;5010341;28;20436;-72
2022/12/01 03:47:43;;;;;;;104.50;21.58;;;15.20;66.30;;;;;;5009850;28;20567;-77
2022/12/01 03:50:12;;;;;;;102.78;21.70;;;15.20;66.50;;;;;;5015708;28;20070;-70
2022/12/01 03:52:42;;;;;;;88.95;19.85;;;15.10;66.50;;;;;;5044373;28;20078;-73
2022/12/01 03:55:17;;;;;;;86.10;20.48;;;15.00;66.30;;;;;;5057493;28;20092;-73
2022/12/01 03:58:00;;;;;;;74.72;18.48;;;15.00;66.50;;;;;;5060517;28;20082;-71
2022/12/01 04:00:27;;;;;;;91.00;21.50;;;14.90;66.60;;;;;;5062680;28;20564;-73
2022/12/01 04:03:01;;;;;;;107.43;25.75;;;14.90;67.20;;;;;;5060000;28;20076;-74
2022/12/01 04:05:28;;;;;;;80.32;25.00;;;14.90;67.80;;;;;;5058125;28;20098;-74
2022/12/01 04:07:55;;;;;;;102.35;23.70;;;14.90;67.80;;;;;;5057032;28;20147;-73
2022/12/01 04:10:22;;;;;;;69.65;21.77;;;14.80;67.40;;;;;;5061080;28;20070;-73
2022/12/01 04:12:48;;;;;;;75.60;22.00;;;14.80;67.20;;;;;;5059286;28;20073;-73
2022/12/01 04:15:15;;;;;;;94.05;20.52;;;14.70;67.50;;;;;;5054595;28;20061;-74
2022/12/01 04:17:43;;;;;;;87.18;22.55;;;14.70;67.90;;;;;;5058307;28;20644;-73
2022/12/01 04:20:12;;;;;;;88.75;20.83;;;14.60;68.80;;;;;;5063779;28;20077;-73
2022/12/01 04:22:38;;;;;;;87.72;21.65;;;14.60;67.90;;;;;;5059573;28;20081;-74
2022/12/01 04:25:05;;;;;;;;;;;14.60;67.90;;;;;;5055626;28;20073;-71
2022/12/01 04:27:32;;;;;;;108.93;24.92;;;14.60;67.90;;;;;;5054148;28;19999;-71
2022/12/01 04:29:59;;;;;;;79.90;24.33;;;14.60;67.80;;;;;;5058693;28;20612;-71
2022/12/01 04:32:26;;;;;;;94.80;25.00;;;14.50;67.80;;;;;;5061685;28;20070;-69
2022/12/01 04:34:52;;;;;;;95.88;23.35;;;14.50;68.10;;;;;;5055188;28;20069;-70
2022/12/01 04:37:18;;;;;;;;;;;14.50;68.70;;;;;;5054515;28;20139;-69
2022/12/01 04:39:45;;;;;;;93.32;22.85;;;14.40;69.50;;;;;;5058489;28;19965;-70
2022/12/01 04:42:11;;;;;;;105.50;23.58;;;14.40;69.80;;;;;;5060027;28;20112;-71
2022/12/01 04:44:38;;;;;;;110.35;23.63;;;14.40;69.40;;;;;;5059980;28;20449;-72
2022/12/01 04:47:04;;;;;;;;;;;14.40;69.30;;;;;;5060943;28;20636;-71
2022/12/01 04:49:31;;;;;;;110.28;23.23;;;14.40;69.50;;;;;;5079705;28;20014;-71
2022/12/01 04:51:58;;;;;;;104.53;25.17;;;14.30;69.90;;;;;;5075593;28;20100;-71
2022/12/01 04:54:25;;;;;;;130.30;24.10;;;14.30;70.50;;;;;;5077158;28;20077;-71
2022/12/01 04:56:51;;;;;;;121.32;24.15;;;14.30;70.20;;;;;;5078396;28;20205;-70
2022/12/01 04:59:17;;;;;;;;;;;14.30;70.40;;;;;;5079287;28;20065;-71
2022/12/01 05:01:45;;;;;;;112.90;24.95;;;14.20;70.20;;;;;;5082347;28;19964;-71
2022/12/01 05:04:15;;;;;;;120.85;25.13;;;14.20;70.30;;;;;;5074117;28;20092;-72
2022/12/01 05:06:42;;;;;;;141.55;26.05;;;14.20;71.30;;;;;;5079933;28;20069;-72
2022/12/01 05:09:14;;;;;;;107.03;26.42;;;14.20;71.30;;;;;;5076129;28;20089;-72
2022/12/01 05:11:40;;;;;;;137.10;26.25;;;14.20;71.70;;;;;;5083808;28;20068;-72
2022/12/01 05:14:06;;;;;;;;;;;14.10;71.80;;;;;;5084209;28;20069;-72
2022/12/01 05:16:33;;;;;;;120.35;28.38;;;14.10;71.50;;;;;;5080932;28;20067;-72
2022/12/01 05:21:50;;;;;;;104.00;26.30;;;14.10;72.10;;;;;;5080261;28;20133;-73
2022/12/01 05:24:18;;;;;;;106.47;26.63;;;14.00;72.20;;;;;;5082109;28;20079;-71
2022/12/01 05:26:44;;;;;;;159.75;29.45;;;14.00;72.20;;;;;;5083087;28;20077;-71
2022/12/01 05:29:12;;;;;;;135.00;28.30;;;14.00;72.30;;;;;;5082904;28;20092;-71
2022/12/01 05:31:38;;;;;;;127.20;29.13;;;14.00;73.10;;;;;;5079099;28;20081;-73
2022/12/01 05:34:06;;;;;;;105.78;27.92;;;13.90;73.60;;;;;;5085098;28;20072;-73
2022/12/01 05:36:32;;;;;;;127.25;32.38;;;13.80;73.90;;;;;;5086723;28;20069;-74
2022/12/01 05:38:59;;;;;;;119.00;31.73;;;13.90;73.70;;;;;;5084184;28;20122;-74
2022/12/01 05:41:25;;;;;;;;;;;13.90;73.50;;;;;;5080014;28;20068;-74
2022/12/01 05:43:51;;;;;;;123.72;36.50;;;13.90;73.60;;;;;;5074383;28;19957;-74
2022/12/01 05:46:17;;;;;;;;;;;13.90;74.00;;;;;;5076774;28;20465;-71
2022/12/01 05:48:44;;;;;;;162.32;39.40;;;13.70;74.10;;;;;;5076744;28;20079;-73
2022/12/01 05:51:12;;;;;;;125.63;35.90;;;13.70;74.10;;;;;;5078696;28;20559;-74
2022/12/01 05:53:39;;;;;;;128.02;37.03;;;13.60;74.30;;;;;;5081671;28;20108;-72
2022/12/01 05:56:06;;;;;;;135.00;43.25;;;13.60;74.30;;;;;;5081003;28;20088;-71
2022/12/01 05:58:34;;;;;;;148.18;45.05;;;13.60;74.10;;;;;;5079084;28;20073;-73
2022/12/01 06:01:01;;;;;;;163.77;43.67;;;13.60;74.10;;;;;;5077895;28;20096;-73
2022/12/01 06:03:27;;;;;;;;;;;13.60;74.60;;;;;;5077217;28;20092;-72
2022/12/01 06:05:53;;;;;;;142.10;44.55;;;13.60;74.80;;;;;;5078783;28;19972;-73
2022/12/01 06:08:19;;;;;;;;;;;13.60;75.50;;;;;;5083016;28;20097;-73
2022/12/01 06:10:46;;;;;;;149.68;43.88;;;13.60;75.40;;;;;;5077964;28;19956;-73
2022/12/01 06:13:12;;;;;;;172.15;54.75;;;13.60;76.00;;;;;;5078289;28;20532;-72
2022/12/01 06:15:39;;;;;;;167.00;54.50;;;13.60;76.00;;;;;;5080265;28;20080;-71
2022/12/01 06:18:05;;;;;;;;;;;13.50;76.00;;;;;;5076960;28;20076;-74
2022/12/01 06:20:31;;;;;;;169.10;58.80;;;13.40;75.20;;;;;;5085533;28;19961;-74
2022/12/01 06:22:58;;;;;;;194.65;64.10;;;13.40;75.50;;;;;;5078645;28;20105;-74
2022/12/01 06:25:24;;;;;;;194.80;63.72;;;13.40;76.00;;;;;;5082063;28;20461;-74
2022/12/01 06:27:56;;;;;;;174.27;62.40;;;13.20;75.70;;;;;;5080878;28;20127;-73
2022/12/01 06:30:22;;;;;;;188.20;57.90;;;13.20;75.70;;;;;;5075322;28;20072;-71
2022/12/01 06:32:48;;;;;;;;;;;13.20;76.60;;;;;;5079865;28;20107;-73
2022/12/01 06:35:15;;;;;;;162.70;49.40;;;13.20;76.50;;;;;;5084326;28;19996;-72
2022/12/01 06:37:41;;;;;;;174.07;48.38;;;13.20;76.30;;;;;;5079007;28;20292;-74
2022/12/01 06:40:07;;;;;;;;;;;13.20;76.30;;;;;;5078246;28;20065;-72
2022/12/01 06:42:34;;;;;;;153.60;44.80;;;13.10;76.20;;;;;;5081665;28;20026;-72
2022/12/01 06:45:00;;;;;;;;;;;13.10;76.50;;;;;;5077595;28;20093;-74
2022/12/01 06:47:26;;;;;;;152.15;42.83;;;13.10;77.00;;;;;;5080237;28;20532;-70
2022/12/01 06:49:53;;;;;;;138.23;41.33;;;13.10;77.00;;;;;;5079847;28;20077;-73
2022/12/01 06:52:19;;;;;;;;;;;13.20;77.80;;;;;;5074667;28;20075;-74
2022/12/01 06:54:45;;;;;;;147.40;46.55;;;13.10;77.30;;;;;;5079518;28;20051;-73
2022/12/01 06:57:11;;;;;;;159.40;44.45;;;13.00;77.20;;;;;;5080813;28;20115;-73
2022/12/01 06:59:37;;;;;;;;;;;13.00;77.60;;;;;;5083380;28;20620;-74
2022/12/01 07:02:04;;;;;;;146.43;39.10;;;13.10;77.20;;;;;;5081367;28;20024;-75
2022/12/01 07:04:30;;;;;;;;;;;13.10;77.20;;;;;;5087290;28;20098;-72
2022/12/01 07:06:56;;;;;;;149.07;55.08;;;13.00;77.70;;;;;;5077957;28;20027;-73
2022/12/01 07:09:22;;;;;;;;;;;13.10;78.00;;;;;;5079667;28;20142;-72
2022/12/01 07:11:48;;;;;;;123.45;41.72;;;13.00;77.70;;;;;;5084121;28;19972;-74
2022/12/01 07:14:25;;;;;;;;;;;13.00;78.40;;;;;;5084039;28;20718;-70
2022/12/01 07:16:52;;;;;;;146.25;53.00;;;13.00;78.70;;;;;;5087922;28;20410;-72
2022/12/01 07:19:18;;;;;;;118.75;38.60;;;12.90;78.50;;;;;;5075549;28;20096;-73
2022/12/01 07:21:44;;;;;;;;;;;12.80;78.80;;;;;;5083848;28;20093;-73
2022/12/01 07:24:13;;;;;;;133.75;38.60;;;12.80;78.80;;;;;;5083515;28;20414;-72
2022/12/01 07:26:41;;;;;;;159.75;39.53;;;12.70;79.20;;;;;;5073195;28;20100;-71
2022/12/01 07:29:08;;;;;;;128.70;37.92;;;12.70;79.60;;;;;;5073344;28;20625;-72
2022/12/01 07:31:35;;;;;;;124.82;36.40;;;12.80;79.80;;;;;;5072990;28;20077;-72
2022/12/01 07:34:02;;;;;;;105.25;33.22;;;12.70;79.20;;;;;;5072523;28;20199;-74
2022/12/01 07:36:28;;;;;;;119.70;33.40;;;12.70;78.90;;;;;;5074212;28;20115;-73
2022/12/01 07:38:54;;;;;;;;;;;12.70;79.20;;;;;;5075728;28;20120;-72
2022/12/01 07:41:21;;;;;;;109.43;31.67;;;12.80;79.60;;;;;;5075873;28;19979;-73
2022/12/01 07:43:48;;;;;;;108.95;31.23;;;12.60;79.20;;;;;;5072366;28;20444;-74
2022/12/01 07:46:20;;;;;;;120.55;32.58;;;12.60;79.30;;;;;;5071761;28;20077;-73
2022/12/01 07:48:47;;;;;;;105.30;33.53;;;12.70;79.80;;;;;;5073429;28;20520;-73
2022/12/01 07:51:15;;;;;;;114.95;31.05;;;12.70;80.10;;;;;;5078938;28;20080;-72
2022/12/01 07:53:43;;;;;;;128.35;30.05;;;12.60;79.80;;;;;;5074292;28;20429;-71
2022/12/01 07:56:09;;;;;;;91.78;30.02;;;12.60;79.80;;;;;;5080463;28;20061;-72
2022/12/01 07:58:36;;;;;;;113.65;30.73;;;12.60;81.00;;;;;;5082569;28;20556;-72
2022/12/01 08:01:18;;;;;;;99.45;30.60;;;12.60;80.10;;;;;;5079828;28;20092;-71
2022/12/01 08:03:46;;;;;;;102.32;29.10;;;12.50;79.70;;;;;;5077227;28;20069;-73
2022/12/01 08:06:12;;;;;;;114.03;31.92;;;12.60;80.60;;;;;;5081548;28;20093;-72
2022/12/01 08:08:39;;;;;;;;;;;12.60;80.40;;;;;;5082332;28;20085;-75
2022/12/01 08:11:09;;;;;;;105.05;31.90;;;12.50;80.70;;;;;;5077204;28;20018;-74
2022/12/01 08:13:36;;;;;;;100.65;31.27;;;12.50;81.00;;;;;;5079494;28;20069;-75
2022/12/01 08:16:04;;;;;;;96.57;27.02;;;12.40;80.50;;;;;;5086395;28;20077;-72
2022/12/01 08:18:33;;;;;;;88.10;27.30;;;12.30;81.80;;;;;;5080041;28;20076;-72
2022/12/01 08:20:59;;;;;;;106.50;25.60;;;12.20;81.70;;;;;;5080443;28;20097;-73
2022/12/01 08:23:25;;;;;;;;;;;12.10;81.70;;;;;;5078713;28;20064;-72
2022/12/01 08:25:51;;;;;;;90.07;26.85;;;12.20;82.00;;;;;;5077609;28;19971;-74
2022/12/01 08:28:18;;;;;;;;;;;12.20;82.40;;;;;;5082664;28;20469;-72
2022/12/01 08:30:46;;;;;;;66.10;23.70;;;12.20;82.70;;;;;;5078219;28;19956;-74
2022/12/01 08:33:12;;;;;;;91.32;25.02;;;12.20;82.40;;;;;;5099618;22;20087;-72
2022/12/01 08:35:38;;;;;;;;;;;12.20;82.40;;;;;;5038740;28;20121;-73
2022/12/01 08:38:05;;;;;;;87.32;28.23;;;12.20;82.30;;;;;;5043042;28;19960;-72
2022/12/01 08:40:31;;;;;;;;;;;12.20;82.70;;;;;;5035822;28;20084;-73
2022/12/01 08:42:57;;;;;;;92.65;26.92;;;12.20;82.50;;;;;;5039112;28;20045;-72
2022/12/01 08:45:24;;;;;;;75.53;24.05;;;12.10;82.40;;;;;;5036784;28;20066;-72
2022/12/01 08:47:51;;;;;;;;;;;12.10;83.40;;;;;;5039233;28;20431;-74
2022/12/01 08:50:18;;;;;;;88.00;24.60;;;12.10;82.40;;;;;;5038596;28;19963;-72
2022/12/01 08:52:44;;;;;;;;;;;12.10;82.30;;;;;;5039215;28;20157;-72
2022/12/01 08:55:11;;;;;;;74.77;24.73;;;11.90;82.70;;;;;;5037677;28;19957;-72
2022/12/01 08:57:37;;;;;;;;;;;12.00;83.30;;;;;;5036688;28;20089;-73
2022/12/01 09:00:04;;;;;;;90.63;27.08;;;12.00;83.50;;;;;;5040420;28;19964;-70
2022/12/01 09:02:30;;;;;;;71.85;24.92;;;11.90;83.60;;;;;;5041133;28;20124;-74
2022/12/01 09:04:56;;;;;;;;;;;11.90;83.30;;;;;;5045803;28;20121;-72
2022/12/01 09:07:23;;;;;;;78.25;26.30;;;11.90;83.40;;;;;;5054129;28;21844;-73
2022/12/01 09:09:49;;;;;;;;;;;11.90;83.50;;;;;;5047624;28;20062;-72
2022/12/01 09:12:15;;;;;;;84.03;25.98;;;11.90;83.90;;;;;;5061665;28;20346;-75
2022/12/01 09:14:46;;;;;;;;;;;11.80;83.40;;;;;;5061394;28;20068;-74
2022/12/01 09:17:14;;;;;;;86.10;25.45;;;11.80;83.90;;;;;;5054684;28;20349;-75
2022/12/01 09:19:40;;;;;;;77.70;25.15;;;11.80;84.30;;;;;;5061803;28;20113;-73
2022/12/01 09:22:07;;;;;;;83.10;26.23;;;11.80;84.50;;;;;;5062672;28;20085;-73
2022/12/01 09:24:33;;;;;;;82.63;26.30;;;11.80;84.70;;;;;;5059703;28;20069;-73
2022/12/01 09:27:00;;;;;;;;;;;11.80;84.60;;;;;;5060287;28;20235;-73
2022/12/01 09:29:26;;;;;;;97.68;28.15;;;11.70;84.40;;;;;;5060818;28;19981;-73
2022/12/01 09:31:56;;;;;;;;;;;11.70;84.80;;;;;;5049603;28;20450;-72
2022/12/01 09:34:22;;;;;;;99.53;31.75;;;11.70;84.40;;;;;;5058809;28;19981;-72
2022/12/01 09:36:49;;;;;;;106.75;30.88;;;11.60;84.70;;;;;;5059525;28;20104;-73
2022/12/01 09:39:18;;;;;;;106.95;33.13;;;11.60;85.00;;;;;;5061569;28;20445;-73
2022/12/01 09:42:14;;;;;;;135.55;32.25;;;11.60;85.40;;;;;;5057183;28;20111;-70
2022/12/01 09:44:55;;;;;;;137.35;43.95;;;12.10;85.30;;;;;;5056808;28;20092;-72
2022/12/01 09:47:26;;;;;;;156.23;47.00;;;12.30;83.90;;;;;;5057732;28;20085;-68
2022/12/01 09:50:09;;;;;;;132.93;46.53;;;12.50;82.50;;;;;;5048938;28;20130;-68
2022/12/01 09:52:43;;;;;;;124.30;53.70;;;12.60;81.80;;;;;;5047890;28;20069;-69
2022/12/01 09:55:15;;;;;;;145.05;53.30;;;12.80;80.90;;;;;;5058083;28;20073;-68
2022/12/01 09:57:47;;;;;;;133.50;50.70;;;12.80;80.60;;;;;;5066175;28;20084;-67
2022/12/01 10:00:25;;;;;;;158.55;51.45;;;12.80;80.80;;;;;;5060058;28;20122;-69
2022/12/01 10:03:05;;;;;;;166.55;52.60;;;12.80;80.80;;;;;;5060200;28;20504;-71
2022/12/01 10:05:55;;;;;;;127.80;37.10;;;12.70;81.10;;;;;;5061925;28;20096;-71
2022/12/01 10:08:28;;;;;;;116.88;37.42;;;12.80;81.10;;;;;;5052928;28;20176;-69
2022/12/01 10:11:16;;;;;;;106.88;37.20;;;12.80;80.60;;;;;;5058750;28;20422;-69
2022/12/01 10:13:43;;;;;;;159.70;40.05;;;12.70;80.40;;;;;;5054687;28;20113;-71
2022/12/01 10:16:10;;;;;;;;;;;12.70;80.20;;;;;;5060639;28;20070;-71
2022/12/01 10:18:56;;;;;;;150.45;41.75;;;12.60;80.90;;;;;;5063280;28;19985;-69
2022/12/01 10:21:29;;;;;;;158.73;46.28;;;12.60;81.00;;;;;;5060032;28;20131;-68
2022/12/01 10:24:01;;;;;;;152.70;49.30;;;12.50;80.80;;;;;;5061600;28;20073;-71
2022/12/01 10:26:55;;;;;;;183.02;51.55;;;12.50;81.00;;;;;;5059242;28;20105;-69
2022/12/01 10:29:27;;;;;;;171.23;51.45;;;12.60;81.00;;;;;;5057957;28;20128;-69
2022/12/01 10:32:04;;;;;;;159.07;50.35;;;12.50;81.20;;;;;;5069191;28;20568;-69
2022/12/01 10:34:34;;;;;;;178.70;54.78;;;12.40;81.40;;;;;;5063129;28;20124;-68
2022/12/01 10:37:02;;;;;;;176.60;52.75;;;12.30;81.60;;;;;;5060193;28;20629;-69
2022/12/01 10:39:38;;;;;;;183.25;58.75;;;12.30;81.80;;;;;;5068848;28;20096;-71
2022/12/01 10:42:15;;;;;;;185.77;55.40;;;12.30;82.10;;;;;;5062192;28;20149;-68
2022/12/01 10:44:42;;;;;;;204.43;60.60;;;12.30;81.90;;;;;;5063373;28;20508;-68
2022/12/01 10:47:34;;;;;;;216.55;60.05;;;12.20;81.90;;;;;;5062487;28;20119;-68
2022/12/01 10:50:03;;;;;;;221.75;62.30;;;12.30;82.20;;;;;;5057676;28;20104;-67
2022/12/01 10:52:39;;;;;;;217.30;66.00;;;12.30;82.00;;;;;;5064872;28;20123;-69
2022/12/01 10:55:26;;;;;;;202.63;61.58;;;12.20;82.60;;;;;;5061386;28;20104;-69
2022/12/01 10:57:59;;;;;;;210.65;63.03;;;12.20;82.50;;;;;;5059534;28;20160;-68
2022/12/01 11:00:29;;;;;;;197.38;63.47;;;12.20;82.60;;;;;;5059571;28;20147;-68
2022/12/01 11:02:56;;;;;;;208.52;66.13;;;12.10;82.70;;;;;;5061225;28;20097;-70
2022/12/01 11:05:27;;;;;;;202.70;62.65;;;12.10;82.90;;;;;;5066291;28;20089;-70
2022/12/01 11:07:54;;;;;;;198.88;61.55;;;12.10;82.80;;;;;;5059245;28;21316;-69
2022/12/01 11:10:28;;;;;;;216.20;70.90;;;12.00;83.80;;;;;;5065956;28;20085;-67
2022/12/01 11:13:02;;;;;;;212.18;67.55;;;12.00;83.80;;;;;;5060153;28;20076;-69
2022/12/01 11:15:39;;;;;;;225.57;65.70;;;12.00;83.70;;;;;;5060179;28;20073;-68
2022/12/01 11:18:22;;;;;;;195.70;63.05;;;12.00;83.60;;;;;;5058711;28;20151;-68
2022/12/01 11:21:08;;;;;;;205.57;63.90;;;12.00;83.10;;;;;;5060966;28;20164;-69
2022/12/01 11:23:44;;;;;;;191.15;63.35;;;11.90;83.00;;;;;;5059068;28;20065;-68
2022/12/01 11:26:21;;;;;;;216.15;67.13;;;11.90;83.00;;;;;;5063848;28;20073;-69
2022/12/01 11:29:02;;;;;;;200.13;66.75;;;11.90;83.10;;;;;;5064698;28;20093;-70
2022/12/01 11:31:40;;;;;;;199.50;63.03;;;11.90;83.90;;;;;;5060178;28;20069;-68
2022/12/01 11:34:15;;;;;;;191.50;68.28;;;11.90;84.10;;;;;;5060736;28;20166;-68
2022/12/01 11:36:45;;;;;;;207.45;65.47;;;11.90;84.10;;;;;;5059254;28;20496;-69
2022/12/01 11:39:27;;;;;;;206.75;63.60;;;11.80;84.40;;;;;;5062312;28;20099;-71
2022/12/01 11:42:01;;;;;;;187.73;63.00;;;11.80;83.80;;;;;;5062665;28;20562;-70
2022/12/01 11:44:29;;;;;;;183.70;60.22;;;11.70;83.70;;;;;;5064138;28;20146;-70
2022/12/01 11:47:15;;;;;;;188.25;61.13;;;11.70;83.90;;;;;;5058660;28;20168;-68
2022/12/01 11:49:52;;;;;;;176.50;61.20;;;11.70;84.10;;;;;;5059396;28;20473;-67
2022/12/01 11:52:23;;;;;;;184.35;57.53;;;11.70;84.50;;;;;;5057317;28;20097;-69
2022/12/01 11:55:10;;;;;;;190.32;59.47;;;11.70;84.40;;;;;;5065719;28;20065;-70
2022/12/01 11:57:40;;;;;;;157.80;53.78;;;11.60;84.50;;;;;;5046770;28;20089;-70
2022/12/01 12:00:16;;;;;;;163.80;54.88;;;11.60;85.50;;;;;;5062634;28;20534;-69
2022/12/01 12:03:07;;;;;;;161.07;55.50;;;11.60;85.60;;;;;;5060742;28;20072;-68
2022/12/01 12:05:37;;;;;;;174.20;53.40;;;11.60;85.70;;;;;;5063014;28;20089;-67
2022/12/01 12:08:12;;;;;;;159.60;54.35;;;11.50;86.10;;;;;;5059933;28;20085;-69
2022/12/01 12:10:44;;;;;;;145.02;49.35;;;11.40;86.00;;;;;;5059513;28;20070;-70
2022/12/01 12:13:25;;;;;;;138.27;46.20;;;11.40;85.60;;;;;;5056919;28;20080;-68
2022/12/01 12:16:21;;;;;;;129.27;43.97;;;11.40;84.80;;;;;;5058280;28;20119;-69
2022/12/01 12:18:55;;;;;;;120.90;40.97;;;11.40;84.60;;;;;;5056766;28;20065;-68
2022/12/01 12:21:33;;;;;;;114.38;39.88;;;11.40;84.80;;;;;;5064149;28;20087;-68
2022/12/01 12:24:27;;;;;;;113.10;37.78;;;11.40;85.00;;;;;;5059469;28;20107;-69
2022/12/01 12:27:17;;;;;;;104.60;37.92;;;11.30;84.70;;;;;;5062889;28;20129;-70
2022/12/01 12:30:11;;;;;;;109.47;37.15;;;11.30;84.90;;;;;;5059437;28;20093;-69
2022/12/01 12:33:02;;;;;;;117.53;38.05;;;11.30;85.30;;;;;;5052851;28;20442;-71
2022/12/01 12:35:39;;;;;;;109.82;34.05;;;11.30;85.80;;;;;;5060171;28;20133;-70
2022/12/01 12:38:12;;;;;;;99.65;35.25;;;11.30;85.90;;;;;;5065095;28;20077;-70
2022/12/01 12:40:53;;;;;;;105.05;35.35;;;11.20;85.70;;;;;;5054761;28;20595;-69
2022/12/01 12:43:44;;;;;;;95.50;36.00;;;11.10;85.70;;;;;;5062067;28;20591;-70
2022/12/01 12:46:37;;;;;;;96.05;34.38;;;11.10;86.20;;;;;;5059554;28;20410;-69
2022/12/01 12:49:16;;;;;;;100.88;36.03;;;11.20;86.60;;;;;;5059647;28;20101;-68
2022/12/01 12:51:46;;;;;;;108.70;35.95;;;11.20;86.50;;;;;;5059310;28;20093;-67
2022/12/01 12:54:23;;;;;;;100.68;35.08;;;11.10;86.50;;;;;;5058364;28;20149;-69
2022/12/01 12:56:54;;;;;;;100.35;37.00;;;11.10;87.00;;;;;;5060656;28;20140;-69
2022/12/01 12:59:52;;;;;;;89.15;33.40;;;11.20;87.10;;;;;;5058941;28;20097;-68